Time;durP1;ratioP1;P1;durP2;ratioP2;P2;SDS_P1;SDS_P2;PMS_P1;PMS_P2;Temp;Humidity;BMP_temperature;BMP_pressure;BME280_temperature;BME280_humidity;BME280_pressure;Samples;Min_cycle;Max_cycle;Signal;HPM_P1;HPM_P2
2022/10/18 00:03:11;;;;;;;6.53;4.37;;;;;;;19.39;61.89;99634.06;6952370;28;20324;-79
2022/10/18 00:06:33;;;;;;;6.57;4.27;;;;;;;19.67;62.04;99640.38;6949233;28;20207;-80
2022/10/18 00:09:55;;;;;;;7.80;4.27;;;;;;;19.80;62.10;99637.34;6949231;28;20230;-79
2022/10/18 00:13:18;;;;;;;9.17;4.60;;;;;;;19.85;61.90;99629.25;6949812;28;20688;-79
2022/10/18 00:16:39;;;;;;;9.83;4.40;;;;;;;19.98;61.52;99636.34;6950112;28;20268;-79
2022/10/18 00:20:01;;;;;;;8.80;5.07;;;;;;;20.05;61.31;99650.69;6949497;28;20279;-79
2022/10/18 00:23:22;;;;;;;6.53;4.33;;;;;;;20.04;60.75;99657.25;6949753;28;20238;-79
2022/10/18 00:26:44;;;;;;;10.47;4.80;;;;;;;19.90;60.83;99640.28;6950051;28;20838;-78
2022/10/18 00:30:09;;;;;;;8.63;4.63;;;;;;;19.83;60.81;99653.28;6947227;28;20311;-79
2022/10/18 00:33:30;;;;;;;6.93;4.73;;;;;;;19.68;61.04;99657.59;6949757;28;20300;-79
2022/10/18 00:36:52;;;;;;;7.73;4.77;;;;;;;19.01;62.69;99652.84;6949118;28;20204;-79
2022/10/18 00:40:13;;;;;;;9.20;5.40;;;;;;;18.67;63.59;99661.84;6947466;28;20280;-79
2022/10/18 00:43:54;;;;;;;8.43;4.70;;;;;;;18.89;64.19;99654.75;6948023;28;20234;-79
2022/10/18 00:47:17;;;;;;;11.07;5.47;;;;;;;19.24;62.46;99650.13;6948414;28;20188;-79
2022/10/18 00:50:39;;;;;;;6.93;4.73;;;;;;;19.19;61.90;99625.34;6948925;28;20724;-79
2022/10/18 00:54:01;;;;;;;10.77;4.90;;;;;;;19.14;61.86;99658.91;6949085;28;20211;-78
2022/10/18 00:57:23;;;;;;;6.77;4.97;;;;;;;19.19;61.67;99648.06;6949029;28;20292;-79
2022/10/18 01:00:45;;;;;;;10.47;4.93;;;;;;;18.97;62.91;99657.94;6947353;28;20380;-79
2022/10/18 01:04:08;;;;;;;8.07;5.37;;;;;;;19.09;62.43;99655.19;6947035;28;20282;-79
2022/10/18 01:07:41;;;;;;;9.10;4.90;;;;;;;19.31;62.30;99659.00;6947315;28;20296;-80
2022/10/18 01:11:12;;;;;;;10.83;4.93;;;;;;;19.24;61.90;99642.75;6947492;28;20316;-79
2022/10/18 01:14:43;;;;;;;9.27;4.77;;;;;;;19.03;62.47;99653.41;6947485;28;20239;-79
2022/10/18 01:18:14;;;;;;;7.87;6.07;;;;;;;19.09;63.07;99660.66;6946722;28;20277;-79
2022/10/18 01:21:41;;;;;;;9.90;5.27;;;;;;;18.96;63.36;99642.63;6946964;28;20321;-79
2022/10/18 01:25:10;;;;;;;9.13;4.70;;;;;;;19.27;62.50;99663.31;6947292;28;20306;-79
2022/10/18 01:28:43;;;;;;;7.33;4.80;;;;;;;19.18;62.65;99634.63;6945614;28;20733;-79
2022/10/18 01:32:10;;;;;;;7.00;5.00;;;;;;;18.99;63.43;99653.06;6947849;28;20325;-79
2022/10/18 01:35:34;;;;;;;11.20;5.00;;;;;;;19.48;62.26;99644.38;6948045;28;20686;-79
2022/10/18 01:38:58;;;;;;;6.73;4.73;;;;;;;19.40;61.63;99646.66;6947268;28;20668;-79
2022/10/18 01:42:20;;;;;;;7.03;5.30;;;;;;;19.43;62.25;99660.66;6947452;28;20573;-79
2022/10/18 01:45:42;;;;;;;8.67;5.50;;;;;;;18.86;62.59;99586.91;6947252;28;20249;-79
2022/10/18 01:49:05;;;;;;;11.13;5.23;;;;;;;19.66;61.67;99663.34;6946595;28;20693;-79
2022/10/18 01:52:27;;;;;;;7.87;4.27;;;;;;;19.56;61.34;99621.25;6947163;28;20780;-78
2022/10/18 01:55:52;;;;;;;9.83;4.50;;;;;;;19.91;60.60;99644.69;6947343;28;20526;-79
2022/10/18 01:59:32;;;;;;;8.33;4.40;;;;;;;19.91;60.43;99641.09;6940030;28;20307;-79
2022/10/18 02:02:57;;;;;;;8.73;4.00;;;;;;;19.69;60.47;99632.75;6919860;28;20329;-79
2022/10/18 02:06:22;;;;;;;8.10;4.47;;;;;;;19.57;61.17;99644.81;6919927;28;20286;-79
2022/10/18 02:09:49;;;;;;;7.97;4.53;;;;;;;19.67;60.14;99623.97;6919209;28;20223;-79
2022/10/18 02:13:11;;;;;;;7.13;4.30;;;;;;;19.85;60.10;99636.59;6919553;28;20193;-79
2022/10/18 02:16:36;;;;;;;5.90;4.10;;;;;;;19.90;59.87;99629.34;6919726;28;20246;-78
2022/10/18 02:19:58;;;;;;;8.13;4.27;;;;;;;20.28;58.31;99621.28;6918622;28;20292;-79
2022/10/18 02:23:23;;;;;;;5.90;3.87;;;;;;;20.32;57.84;99613.41;6919198;28;20579;-78
2022/10/18 02:26:44;;;;;;;9.17;4.30;;;;;;;20.06;58.81;99616.75;6919512;28;20745;-79
2022/10/18 02:30:08;;;;;;;10.87;4.00;;;;;;;20.36;58.28;99625.53;6917359;28;20224;-79
2022/10/18 02:33:33;;;;;;;12.57;4.20;;;;;;;20.34;58.25;99636.75;6919267;28;20678;-78
2022/10/18 02:36:57;;;;;;;6.83;4.00;;;;;;;20.24;58.54;99613.81;6919304;28;20205;-79
2022/10/18 02:40:20;;;;;;;6.20;4.03;;;;;;;20.29;58.51;99616.66;6917776;28;20760;-78
2022/10/18 02:43:42;;;;;;;6.10;4.17;;;;;;;19.94;59.66;99632.41;6918516;28;20318;-78
2022/10/18 02:47:04;;;;;;;9.70;4.30;;;;;;;19.33;61.38;99605.75;6918278;28;20354;-78
2022/10/18 02:50:25;;;;;;;7.87;4.30;;;;;;;19.82;60.80;99626.97;6916847;28;20228;-78
2022/10/18 02:53:47;;;;;;;8.70;4.37;;;;;;;20.00;59.59;99607.63;6917324;28;20327;-78
2022/10/18 02:57:10;;;;;;;6.10;4.10;;;;;;;20.15;59.48;99639.94;6917576;28;20269;-79
2022/10/18 03:00:31;;;;;;;4.60;4.20;;;;;;;20.04;59.73;99613.44;6916516;28;20349;-78
2022/10/18 03:03:53;;;;;;;15.63;5.10;;;;;;;20.20;59.43;99623.59;6918801;28;20208;-79
2022/10/18 03:07:14;;;;;;;8.93;5.27;;;;;;;19.77;60.06;99604.16;6918702;28;20345;-78
2022/10/18 03:10:36;;;;;;;11.70;4.93;;;;;;;19.84;60.74;99638.53;6918135;28;20303;-78
2022/10/18 03:13:59;;;;;;;7.70;5.10;;;;;;;19.17;63.01;99632.97;6919113;28;20291;-77
2022/10/18 03:17:20;;;;;;;11.00;4.93;;;;;;;19.76;61.50;99635.34;6922224;28;20233;-78
2022/10/18 03:20:42;;;;;;;6.77;4.73;;;;;;;19.93;60.79;99644.44;6918226;28;20231;-78
2022/10/18 03:24:04;;;;;;;8.83;4.73;;;;;;;19.90;60.63;99645.75;6926589;28;20311;-78
2022/10/18 03:27:25;;;;;;;7.40;5.30;;;;;;;19.79;60.98;99638.44;6930768;28;20290;-79
2022/10/18 03:30:48;;;;;;;6.10;4.43;;;;;;;19.81;60.54;99640.94;6950436;28;20711;-78
2022/10/18 03:34:10;;;;;;;9.77;4.73;;;;;;;19.70;60.58;99601.56;6951216;28;20357;-79
2022/10/18 03:37:33;;;;;;;9.83;4.73;;;;;;;19.85;60.28;99620.19;6950174;28;20341;-78
2022/10/18 03:40:55;;;;;;;8.83;4.23;;;;;;;19.50;61.10;99614.00;6951004;28;20237;-78
2022/10/18 03:44:16;;;;;;;13.53;4.23;;;;;;;19.92;59.96;99618.16;6950485;28;20246;-78
2022/10/18 03:47:39;;;;;;;9.60;4.07;;;;;;;20.14;58.95;99630.91;6951060;28;20678;-78
2022/10/18 03:51:00;;;;;;;6.97;3.90;;;;;;;20.10;58.70;99626.19;6951355;28;20321;-78
2022/10/18 03:54:22;;;;;;;6.83;3.67;;;;;;;20.08;58.73;99629.16;6950053;28;20294;-78
2022/10/18 03:57:43;;;;;;;6.63;3.97;;;;;;;20.17;58.24;99619.44;6949473;28;20272;-78
2022/10/18 04:01:05;;;;;;;7.47;3.60;;;;;;;20.19;58.44;99622.78;6949570;28;20242;-78
2022/10/18 04:04:28;;;;;;;7.70;3.33;;;;;;;20.21;57.76;99631.59;6948424;28;20241;-77
2022/10/18 04:07:50;;;;;;;5.73;4.20;;;;;;;19.86;58.87;99614.47;6948008;28;20211;-79
2022/10/18 04:11:11;;;;;;;7.60;3.50;;;;;;;20.14;57.57;99613.66;6948475;28;20353;-78
2022/10/18 04:14:33;;;;;;;8.10;3.57;;;;;;;20.06;58.35;99614.91;6948596;28;20207;-79
2022/10/18 04:17:55;;;;;;;7.23;3.93;;;;;;;20.18;57.82;99620.28;6949158;28;20256;-78
2022/10/18 04:21:18;;;;;;;7.20;3.60;;;;;;;20.19;57.02;99584.44;6949924;28;20261;-79
2022/10/18 04:24:40;;;;;;;8.00;3.57;;;;;;;20.32;56.78;99624.38;6949389;28;20288;-78
2022/10/18 04:28:03;;;;;;;8.60;3.60;;;;;;;20.48;56.25;99618.06;6950054;28;20372;-79
2022/10/18 04:31:25;;;;;;;5.13;3.63;;;;;;;20.52;55.95;99620.06;6943434;28;20332;-79
2022/10/18 04:34:47;;;;;;;8.07;3.30;;;;;;;20.58;55.88;99631.94;6947766;28;20215;-79
2022/10/18 04:38:09;;;;;;;9.53;3.90;;;;;;;20.53;56.48;99631.84;6953665;28;20322;-79
2022/10/18 04:41:31;;;;;;;7.20;4.20;;;;;;;20.51;56.40;99639.50;6949730;28;20762;-79
2022/10/18 04:44:53;;;;;;;4.70;3.30;;;;;;;20.33;55.84;99604.13;6948630;28;20227;-79
2022/10/18 04:48:14;;;;;;;6.30;3.23;;;;;;;20.57;55.29;99627.56;6948604;28;20293;-79
2022/10/18 04:51:36;;;;;;;5.43;3.70;;;;;;;20.37;56.16;99632.69;6949116;28;20685;-79
2022/10/18 04:54:59;;;;;;;6.43;3.83;;;;;;;20.20;57.04;99623.59;6949021;28;20203;-79
2022/10/18 04:58:20;;;;;;;3.43;3.17;;;;;;;20.18;56.19;99618.41;6948451;28;20322;-79
2022/10/18 05:01:42;;;;;;;8.83;3.80;;;;;;;20.52;55.47;99621.97;6946018;28;20281;-79
2022/10/18 05:05:04;;;;;;;8.73;4.50;;;;;;;20.75;54.88;99630.03;6951865;28;20700;-80
2022/10/18 05:08:25;;;;;;;3.80;3.40;;;;;;;20.63;54.50;99612.84;6946538;28;20212;-80
2022/10/18 05:11:48;;;;;;;6.43;3.77;;;;;;;20.71;54.64;99623.38;6949144;28;20227;-80
2022/10/18 05:15:10;;;;;;;7.43;3.63;;;;;;;20.76;54.24;99612.50;6948862;28;20272;-81
2022/10/18 05:18:32;;;;;;;3.60;3.30;;;;;;;20.39;55.76;99614.09;6964410;28;20289;-80
2022/10/18 05:21:53;;;;;;;5.93;3.97;;;;;;;19.74;57.73;99621.91;6957871;28;20306;-79
2022/10/18 05:25:15;;;;;;;5.27;3.17;;;;;;;19.02;59.79;99625.28;6948151;28;20277;-80
2022/10/18 05:28:38;;;;;;;5.17;3.40;;;;;;;20.16;56.84;99619.72;6940146;28;20227;-80
2022/10/18 05:31:59;;;;;;;9.43;3.97;;;;;;;20.86;54.92;99612.66;6946236;28;20320;-80
2022/10/18 05:35:21;;;;;;;6.00;3.57;;;;;;;21.06;54.28;99629.44;6950454;28;20211;-80
2022/10/18 05:38:44;;;;;;;7.40;3.80;;;;;;;20.44;56.03;99625.97;6949025;28;20330;-79
2022/10/18 05:42:06;;;;;;;7.27;4.47;;;;;;;19.89;57.90;99626.84;6950225;28;20273;-78
2022/10/18 05:45:28;;;;;;;8.40;4.00;;;;;;;20.56;57.72;99610.28;6953231;28;20695;-78
2022/10/18 05:48:50;;;;;;;4.83;3.47;;;;;;;20.78;55.45;99627.63;6949480;28;20233;-79
2022/10/18 05:52:12;;;;;;;4.27;3.83;;;;;;;20.93;54.51;99635.28;6950491;28;20263;-80
2022/10/18 05:55:34;;;;;;;11.70;4.20;;;;;;;20.67;55.21;99634.81;6949644;28;20245;-79
2022/10/18 05:58:55;;;;;;;7.90;4.10;;;;;;;20.05;57.26;99645.22;6948846;28;20207;-79
2022/10/18 06:02:18;;;;;;;6.83;4.13;;;;;;;19.58;58.55;99622.66;6949295;28;20218;-78
2022/10/18 06:05:40;;;;;;;10.33;3.97;;;;;;;19.91;58.00;99608.25;6949286;28;20223;-79
2022/10/18 06:09:02;;;;;;;5.50;4.53;;;;;;;20.29;56.51;99627.63;6949350;28;20660;-80
2022/10/18 06:12:24;;;;;;;14.33;5.17;;;;;;;19.42;59.19;99601.56;6946974;28;20214;-79
2022/10/18 06:15:45;;;;;;;9.23;5.30;;;;;;;18.84;60.94;99603.53;6945826;28;20561;-79
2022/10/18 06:19:08;;;;;;;8.70;4.77;;;;;;;19.78;59.50;99644.13;6947686;28;20262;-79
2022/10/18 06:22:30;;;;;;;7.60;5.03;;;;;;;19.69;59.19;99634.66;6948486;28;20827;-80
2022/10/18 06:25:52;;;;;;;6.70;4.50;;;;;;;19.68;59.44;99642.03;6950260;28;20222;-81
2022/10/18 06:29:13;;;;;;;7.33;4.80;;;;;;;19.60;59.37;99627.91;6941552;28;20299;-79
2022/10/18 06:32:35;;;;;;;11.90;5.07;;;;;;;19.53;59.77;99636.28;6944995;28;20229;-79
2022/10/18 06:35:59;;;;;;;12.70;5.47;;;;;;;18.82;60.70;99578.34;6949403;28;20203;-79
2022/10/18 06:39:21;;;;;;;13.73;5.07;;;;;;;19.95;59.41;99653.22;6947276;28;20682;-80
2022/10/18 06:42:42;;;;;;;9.07;4.80;;;;;;;19.97;59.55;99657.38;6953232;28;20199;-80
2022/10/18 06:46:06;;;;;;;9.30;5.20;;;;;;;20.26;59.04;99659.06;6956854;28;20203;-79
2022/10/18 06:49:27;;;;;;;5.60;4.27;;;;;;;21.08;57.14;99651.94;6943024;28;20212;-81
2022/10/18 06:52:51;;;;;;;9.37;4.43;;;;;;;20.95;57.06;99649.56;6947841;28;20212;-78
2022/10/18 06:56:13;;;;;;;9.27;4.03;;;;;;;21.69;56.15;99675.34;6946584;28;20294;-79
2022/10/18 06:59:35;;;;;;;9.30;4.20;;;;;;;21.91;53.75;99643.22;6945817;28;20313;-79
2022/10/18 07:02:57;;;;;;;8.63;4.30;;;;;;;21.98;54.12;99674.03;6944801;28;20304;-79
2022/10/18 07:06:19;;;;;;;9.60;4.73;;;;;;;22.36;52.79;99649.16;6932054;28;20204;-80
2022/10/18 07:09:44;;;;;;;13.63;5.47;;;;;;;21.37;55.08;99674.31;6941832;28;20236;-79
2022/10/18 07:13:06;;;;;;;8.87;4.40;;;;;;;22.49;53.43;99667.97;6941591;28;20205;-79
2022/10/18 07:16:27;;;;;;;9.27;5.10;;;;;;;20.96;56.29;99664.91;6948456;28;20286;-79
2022/10/18 07:19:49;;;;;;;8.27;4.07;;;;;;;22.20;53.91;99663.00;6946137;28;20319;-80
2022/10/18 07:23:11;;;;;;;9.40;4.17;;;;;;;22.48;53.47;99665.53;6948454;28;20968;-80
2022/10/18 07:26:36;;;;;;;9.60;4.73;;;;;;;22.33;53.51;99668.06;6948131;28;20211;-79
2022/10/18 07:29:58;;;;;;;8.73;4.30;;;;;;;22.16;54.02;99665.44;6936457;28;20224;-79
2022/10/18 07:33:19;;;;;;;12.80;4.83;;;;;;;21.71;56.36;99656.69;6943132;28;20711;-79
2022/10/18 07:36:41;;;;;;;9.37;4.43;;;;;;;22.19;55.74;99651.19;6947309;28;20601;-79
2022/10/18 07:40:04;;;;;;;7.03;4.80;;;;;;;22.17;54.98;99669.84;6946808;28;20346;-79
2022/10/18 07:43:28;;;;;;;9.37;4.80;;;;;;;22.46;54.43;99668.53;6948686;28;20223;-78
2022/10/18 07:46:49;;;;;;;11.13;4.50;;;;;;;22.59;54.43;99672.78;6949645;28;20296;-79
2022/10/18 07:50:11;;;;;;;7.63;4.27;;;;;;;22.35;54.86;99677.72;6923511;28;20274;-79
2022/10/18 07:53:33;;;;;;;7.57;4.57;;;;;;;22.70;54.31;99674.50;6920296;28;20803;-79
2022/10/18 07:56:54;;;;;;;6.23;4.63;;;;;;;22.61;53.84;99656.84;6925633;28;20292;-79
2022/10/18 08:00:17;;;;;;;7.27;4.37;;;;;;;22.64;53.38;99648.03;6944673;28;20351;-80
2022/10/18 08:03:40;;;;;;;8.67;3.97;;;;;;;23.15;52.57;99681.19;6948252;28;20275;-79
2022/10/18 08:07:01;;;;;;;9.10;4.60;;;;;;;23.33;51.81;99668.94;6943729;28;20573;-79
2022/10/18 08:10:24;;;;;;;10.87;5.13;;;;;;;23.33;52.41;99668.94;6940692;28;20290;-79
2022/10/18 08:13:46;;;;;;;60.20;9.83;;;;;;;23.37;52.32;99670.88;6943240;28;20567;-79
2022/10/18 08:17:08;;;;;;;11.37;4.10;;;;;;;23.68;50.78;99663.59;6948650;28;20217;-79
2022/10/18 08:20:32;;;;;;;5.77;3.80;;;;;;;23.78;50.40;99653.44;6950728;28;20314;-80
2022/10/18 08:23:53;;;;;;;5.23;3.97;;;;;;;23.98;50.47;99686.63;6951314;28;20227;-80
2022/10/18 08:27:15;;;;;;;8.10;3.90;;;;;;;24.42;49.33;99692.53;6954052;28;20214;-80
2022/10/18 08:30:36;;;;;;;7.77;3.57;;;;;;;24.66;47.51;99647.63;6950339;28;20306;-80
2022/10/18 08:33:59;;;;;;;5.60;3.63;;;;;;;24.57;46.90;99667.75;6951487;28;20207;-82
2022/10/18 08:37:21;;;;;;;6.73;3.73;;;;;;;25.03;47.19;99683.22;6952260;28;20213;-79
2022/10/18 08:40:43;;;;;;;5.13;3.43;;;;;;;25.20;47.53;99703.06;6951459;28;20693;-79
2022/10/18 08:44:07;;;;;;;11.63;4.07;;;;;;;25.26;47.03;99688.19;6954346;28;20425;-79
2022/10/18 08:47:35;;;;;;;7.90;3.53;;;;;;;25.29;46.20;99677.41;6949975;28;20297;-79
2022/10/18 08:50:58;;;;;;;6.10;3.80;;;;;;;25.53;44.80;99695.00;6951759;28;20304;-79
2022/10/18 08:54:26;;;;;;;11.43;4.20;;;;;;;25.52;45.50;99689.75;6951025;28;20294;-80
2022/10/18 08:57:48;;;;;;;4.57;3.50;;;;;;;25.39;45.74;99688.44;6950490;28;20640;-79
2022/10/18 09:01:18;;;;;;;4.87;4.47;;;;;;;25.20;45.38;99698.34;6950756;28;20318;-79
2022/10/18 09:04:47;;;;;;;4.37;3.60;;;;;;;25.62;44.26;99693.34;6950956;28;20349;-80
2022/10/18 09:08:31;;;;;;;5.33;3.30;;;;;;;25.43;45.27;99656.38;6950147;28;20208;-79
2022/10/18 09:12:00;;;;;;;5.87;3.30;;;;;;;26.29;43.33;99667.88;6944421;28;20261;-80
2022/10/18 09:15:29;;;;;;;5.50;3.27;;;;;;;26.06;44.20;99702.59;6923969;28;20315;-80
2022/10/18 09:18:56;;;;;;;12.47;5.43;;;;;;;25.87;44.89;99696.00;6922949;28;20266;-79
2022/10/18 09:22:18;;;;;;;4.50;3.50;;;;;;;25.48;45.33;99695.03;6930871;28;20202;-80
2022/10/18 09:25:45;;;;;;;5.80;3.27;;;;;;;26.10;44.25;99708.38;6951739;28;20328;-80
2022/10/18 09:29:10;;;;;;;6.13;4.67;;;;;;;26.04;44.86;99701.22;6932523;28;20802;-79
2022/10/18 09:32:44;;;;;;;8.77;7.93;;;;;;;26.12;44.08;99695.91;6949462;28;20345;-79
2022/10/18 09:36:08;;;;;;;12.40;10.67;;;;;;;26.35;44.07;99686.94;6950971;28;20294;-80
2022/10/18 09:39:32;;;;;;;8.03;4.47;;;;;;;26.73;42.88;99697.19;6949671;28;20629;-79
2022/10/18 09:42:58;;;;;;;17.30;9.07;;;;;;;26.50;44.07;99694.31;6950117;28;20255;-79
2022/10/18 09:46:21;;;;;;;7.83;4.20;;;;;;;27.37;43.06;99697.75;6945405;28;20679;-80
2022/10/18 09:49:45;;;;;;;22.13;13.57;;;;;;;27.93;41.90;99701.59;6950288;28;20272;-80
2022/10/18 09:53:17;;;;;;;6.63;4.80;;;;;;;27.77;41.60;99708.44;6953731;28;20236;-79
2022/10/18 09:56:42;;;;;;;16.23;10.90;;;;;;;26.88;44.12;99719.25;6949528;28;20215;-79
2022/10/18 10:00:07;;;;;;;6.60;5.37;;;;;;;26.18;45.71;99722.41;6946961;28;20269;-78
2022/10/18 10:03:34;;;;;;;4.97;3.73;;;;;;;27.37;42.97;99716.34;6942736;28;20298;-79
2022/10/18 10:06:57;;;;;;;5.90;3.53;;;;;;;26.52;43.18;99731.66;6947795;28;20290;-79
2022/10/18 10:10:21;;;;;;;5.37;3.53;;;;;;;26.33;43.13;99735.34;6945692;28;20313;-78
2022/10/18 10:13:42;;;;;;;7.13;3.60;;;;;;;26.51;42.78;99734.69;6940175;28;20231;-78
2022/10/18 10:17:06;;;;;;;8.27;5.27;;;;;;;27.13;41.44;99723.75;6946671;28;20790;-78
2022/10/18 10:20:33;;;;;;;6.80;5.30;;;;;;;27.01;42.49;99729.66;6950751;28;20325;-78
2022/10/18 10:23:57;;;;;;;5.10;3.17;;;;;;;26.47;43.29;99730.81;6954433;28;20715;-79
2022/10/18 10:27:21;;;;;;;5.57;3.23;;;;;;;26.30;43.70;99736.75;6947420;28;20629;-79
2022/10/18 10:30:43;;;;;;;4.77;3.50;;;;;;;26.06;44.45;99727.47;6973126;28;20218;-79
2022/10/18 10:34:17;;;;;;;6.40;3.50;;;;;;;25.95;44.46;99714.78;6974763;28;20204;-79
2022/10/18 10:37:40;;;;;;;5.50;3.33;;;;;;;26.01;45.00;99719.19;6955693;28;20270;-79
2022/10/18 10:41:01;;;;;;;8.23;3.40;;;;;;;25.62;44.95;99715.44;6946089;28;20280;-78
2022/10/18 10:44:24;;;;;;;5.33;3.33;;;;;;;25.63;45.27;99714.34;6945664;28;20712;-78
2022/10/18 10:47:46;;;;;;;6.33;3.30;;;;;;;26.65;43.36;99730.22;6947269;28;20362;-79
2022/10/18 10:51:10;;;;;;;8.10;3.20;;;;;;;26.78;42.20;99724.84;6947031;28;20226;-79
2022/10/18 10:54:35;;;;;;;4.43;2.83;;;;;;;27.03;42.19;99723.81;6931671;28;20227;-78
2022/10/18 10:57:56;;;;;;;3.80;3.37;;;;;;;27.33;41.57;99712.50;6933277;28;20667;-79
2022/10/18 11:01:30;;;;;;;4.07;3.07;;;;;;;26.80;41.71;99724.56;6920381;28;20235;-78
2022/10/18 11:04:53;;;;;;;3.10;2.90;;;;;;;26.63;42.01;99718.59;6919169;28;20237;-78
2022/10/18 11:08:18;;;;;;;5.27;3.03;;;;;;;27.66;40.22;99708.84;6916557;28;20641;-79
2022/10/18 11:11:45;;;;;;;3.50;3.20;;;;;;;27.14;41.92;99715.13;6945662;28;20302;-78
2022/10/18 11:15:17;;;;;;;4.73;3.57;;;;;;;27.72;41.25;99711.25;6946364;28;20206;-79
2022/10/18 11:18:39;;;;;;;7.37;3.10;;;;;;;28.37;39.89;99715.19;6939382;28;20670;-78
2022/10/18 11:22:04;;;;;;;4.90;3.17;;;;;;;27.88;40.05;99698.88;6946024;28;20314;-80
2022/10/18 11:25:40;;;;;;;5.67;3.50;;;;;;;27.88;40.43;99707.22;6924038;28;20301;-79
2022/10/18 11:29:35;;;;;;;4.90;3.27;;;;;;;27.49;41.46;99705.69;6945913;28;20253;-79
2022/10/18 11:32:59;;;;;;;5.93;3.10;;;;;;;27.77;40.77;99697.34;6895780;28;20612;-81
2022/10/18 11:36:26;;;;;;;5.47;3.00;;;;;;;27.06;41.79;99679.78;6946826;28;20267;-79
2022/10/18 11:39:56;;;;;;;6.37;3.37;;;;;;;27.28;41.79;99688.47;6944115;28;20377;-79
2022/10/18 11:43:24;;;;;;;5.77;3.40;;;;;;;28.08;40.73;99692.28;6946274;28;20242;-82
2022/10/18 11:46:54;;;;;;;5.77;3.60;;;;;;;27.11;42.39;99634.59;6951160;28;20313;-79
2022/10/18 11:50:25;;;;;;;5.93;3.07;;;;;;;27.06;41.95;99696.38;6949648;28;20292;-79
2022/10/18 11:53:55;;;;;;;8.23;3.40;;;;;;;27.86;42.30;99689.22;6950111;28;20198;-79
2022/10/18 11:57:29;;;;;;;5.37;2.93;;;;;;;28.27;40.96;99693.94;6950854;28;20286;-79
2022/10/18 12:00:55;;;;;;;6.40;3.30;;;;;;;28.13;41.48;99687.47;6960886;28;20223;-79
2022/10/18 12:04:18;;;;;;;4.83;3.57;;;;;;;28.28;40.98;99661.47;6951781;28;20230;-79
2022/10/18 12:07:45;;;;;;;7.37;3.20;;;;;;;28.43;39.38;99675.16;6951618;28;20300;-79
2022/10/18 12:11:13;;;;;;;6.50;3.50;;;;;;;28.24;40.54;99661.25;6946872;28;20704;-81
2022/10/18 12:14:37;;;;;;;8.30;3.20;;;;;;;27.89;41.83;99686.66;6951465;28;20222;-79
2022/10/18 12:18:01;;;;;;;6.20;3.23;;;;;;;28.05;41.60;99665.94;6949716;28;20236;-79
2022/10/18 12:21:24;;;;;;;9.07;3.33;;;;;;;28.14;41.46;99683.56;6950443;28;20380;-79
2022/10/18 12:24:46;;;;;;;6.37;3.63;;;;;;;27.97;42.03;99676.88;6950650;28;20675;-80
2022/10/18 12:28:14;;;;;;;7.30;3.30;;;;;;;27.61;43.23;99639.63;6936235;28;20887;-79
2022/10/18 12:31:38;;;;;;;3.80;3.00;;;;;;;27.67;43.38;99666.94;6923798;28;20226;-79
2022/10/18 12:35:05;;;;;;;6.40;3.00;;;;;;;28.23;41.76;99639.34;6924181;28;20897;-79
2022/10/18 12:38:29;;;;;;;4.47;3.00;;;;;;;27.66;42.38;99609.06;6923141;28;20660;-79
2022/10/18 12:41:53;;;;;;;7.93;2.90;;;;;;;28.81;40.81;99666.50;6927995;28;20219;-79
2022/10/18 12:45:31;;;;;;;6.17;3.10;;;;;;;29.04;40.14;99654.47;6949550;28;20716;-79
2022/10/18 12:49:02;;;;;;;3.63;2.50;;;;;;;28.53;40.48;99656.41;6946615;28;20205;-79
2022/10/18 12:52:26;;;;;;;6.67;2.97;;;;;;;27.86;41.92;99631.00;6940050;28;20267;-80
2022/10/18 12:55:50;;;;;;;7.40;2.80;;;;;;;27.28;43.49;99648.84;6950262;28;20218;-79
2022/10/18 12:59:48;;;;;;;4.77;2.73;;;;;;;26.51;44.34;99657.22;6950552;28;20208;-79
2022/10/18 13:04:00;;;;;;;6.33;2.90;;;;;;;26.81;44.01;99660.63;6951063;28;20288;-79
2022/10/18 13:07:39;;;;;;;4.43;2.83;;;;;;;26.57;44.94;99665.25;6952442;28;20242;-80
2022/10/18 13:11:29;;;;;;;8.33;3.47;;;;;;;26.05;46.44;99672.44;6951026;28;20226;-79
2022/10/18 13:14:59;;;;;;;5.53;3.43;;;;;;;26.73;45.58;99665.94;6948700;28;20278;-80
2022/10/18 13:18:23;;;;;;;5.07;3.33;;;;;;;26.99;44.85;99642.47;6950760;28;20206;-79
2022/10/18 13:21:51;;;;;;;8.77;3.23;;;;;;;26.69;45.93;99662.94;6956200;28;20242;-81
2022/10/18 13:25:21;;;;;;;6.87;3.37;;;;;;;26.60;45.34;99648.06;6963965;28;20280;-80
2022/10/18 13:28:50;;;;;;;10.10;3.10;;;;;;;26.29;46.28;99670.66;6948867;28;20205;-79
2022/10/18 13:32:21;;;;;;;6.37;3.13;;;;;;;26.12;46.41;99667.47;6949195;28;20223;-80
2022/10/18 13:35:50;;;;;;;3.77;2.93;;;;;;;25.81;47.80;99665.91;6949437;28;20223;-79
2022/10/18 13:39:19;;;;;;;4.07;2.60;;;;;;;25.41;48.29;99677.94;6949087;28;20193;-80
2022/10/18 13:42:42;;;;;;;4.60;3.13;;;;;;;25.51;48.28;99663.25;6949456;28;20195;-80
2022/10/18 13:46:04;;;;;;;6.33;2.70;;;;;;;25.80;47.42;99672.53;6949195;28;20714;-79
2022/10/18 13:49:33;;;;;;;5.23;2.50;;;;;;;25.62;47.78;99664.88;6948094;28;20789;-79
2022/10/18 13:53:30;;;;;;;4.17;2.50;;;;;;;25.97;46.06;99667.53;6950369;28;20599;-80
2022/10/18 13:57:05;;;;;;;4.20;2.53;;;;;;;26.37;46.10;99665.34;6948918;28;20274;-79
2022/10/18 14:00:50;;;;;;;3.20;2.03;;;;;;;27.01;44.63;99654.09;6948386;28;20264;-79
2022/10/18 14:04:35;;;;;;;5.47;2.50;;;;;;;27.32;43.68;99672.88;6935712;28;20294;-79
2022/10/18 14:08:00;;;;;;;7.13;2.93;;;;;;;26.42;45.92;99668.06;6917037;28;20288;-79
2022/10/18 14:11:27;;;;;;;5.50;2.70;;;;;;;26.29;46.05;99682.53;6920607;28;20227;-79
2022/10/18 14:14:54;;;;;;;7.70;2.80;;;;;;;26.14;46.45;99645.88;6920396;28;20350;-79
2022/10/18 14:18:21;;;;;;;5.27;2.80;;;;;;;26.48;45.92;99647.56;6919909;28;20257;-79
2022/10/18 14:21:48;;;;;;;4.27;2.40;;;;;;;27.37;44.46;99669.25;6920044;28;20948;-79
2022/10/18 14:25:20;;;;;;;3.03;2.73;;;;;;;26.54;45.59;99668.56;6935541;28;20291;-79
2022/10/18 14:28:42;;;;;;;4.60;2.80;;;;;;;26.45;45.44;99656.47;6947106;28;20276;-79
2022/10/18 14:32:08;;;;;;;4.77;2.70;;;;;;;25.84;47.43;99673.66;6946403;28;20727;-79
2022/10/18 14:35:34;;;;;;;2.93;2.50;;;;;;;26.33;46.74;99683.63;6942946;28;20218;-79
2022/10/18 14:38:57;;;;;;;4.67;2.70;;;;;;;26.35;46.77;99695.22;6945523;28;20210;-79
2022/10/18 14:42:20;;;;;;;4.93;2.97;;;;;;;26.27;47.15;99689.47;6943736;28;20248;-80
2022/10/18 14:45:42;;;;;;;6.43;2.97;;;;;;;26.38;46.59;99667.03;6949430;28;20231;-79
2022/10/18 14:49:05;;;;;;;5.67;3.47;;;;;;;26.49;46.65;99693.47;6946467;28;20246;-79
2022/10/18 14:52:30;;;;;;;8.13;3.50;;;;;;;26.01;47.94;99677.72;6947823;28;20210;-78
2022/10/18 14:55:53;;;;;;;6.20;3.40;;;;;;;26.11;47.93;99696.19;6946853;28;20289;-79
2022/10/18 14:59:18;;;;;;;5.57;3.27;;;;;;;26.08;48.30;99694.00;6946441;28;20310;-79
2022/10/18 15:02:39;;;;;;;4.90;3.00;;;;;;;25.99;48.42;99690.16;6947529;28;20271;-79
2022/10/18 15:06:06;;;;;;;5.47;3.03;;;;;;;26.29;47.58;99679.78;6947603;28;20233;-79
2022/10/18 15:09:29;;;;;;;3.23;2.93;;;;;;;26.25;47.56;99680.66;6946891;28;20238;-79
2022/10/18 15:12:52;;;;;;;4.30;3.20;;;;;;;25.92;48.23;99686.88;6947878;28;20214;-79
2022/10/18 15:16:15;;;;;;;4.53;3.10;;;;;;;25.64;48.42;99657.97;6947322;28;20365;-79
2022/10/18 15:19:38;;;;;;;4.87;3.00;;;;;;;25.70;48.71;99687.22;6950694;28;20797;-79
2022/10/18 15:23:22;;;;;;;3.83;2.90;;;;;;;25.57;48.99;99687.00;6953807;28;20210;-79
2022/10/18 15:26:45;;;;;;;5.03;3.13;;;;;;;25.57;49.21;99684.22;6953195;28;20229;-79
2022/10/18 15:30:09;;;;;;;5.97;2.87;;;;;;;25.71;49.10;99685.31;6925019;28;20320;-78
2022/10/18 15:33:33;;;;;;;3.30;3.00;;;;;;;25.67;48.70;99687.78;6925454;28;20375;-78
2022/10/18 15:36:55;;;;;;;5.43;2.90;;;;;;;25.68;49.05;99675.66;6925084;28;20206;-79
2022/10/18 15:40:38;;;;;;;3.60;2.73;;;;;;;25.15;50.04;99692.88;6924805;28;20286;-79
2022/10/18 15:44:08;;;;;;;3.20;2.67;;;;;;;25.10;49.78;99642.34;6925109;28;20294;-79
2022/10/18 15:47:30;;;;;;;5.67;2.90;;;;;;;25.24;49.73;99684.88;6926666;28;20279;-79
2022/10/18 15:50:53;;;;;;;6.53;2.83;;;;;;;25.32;49.34;99681.53;6931319;28;20246;-79
2022/10/18 15:54:18;;;;;;;5.03;3.40;;;;;;;25.34;49.56;99691.19;6953157;28;20291;-79
2022/10/18 15:57:39;;;;;;;4.97;3.37;;;;;;;25.52;49.29;99687.00;6951677;28;20233;-79
2022/10/18 16:01:03;;;;;;;5.77;3.50;;;;;;;25.31;49.95;99685.41;6952925;28;20300;-80
2022/10/18 16:04:27;;;;;;;5.60;3.43;;;;;;;25.10;49.67;99672.69;6952478;28;20582;-80